Union Trader — SVAX6 — position and weather

sailwx.info

Track history (hours):
 
Tides and Currents Weather Stations Pressure Air Temp Water Temp Dewpoint Dewpoint Depression Visibility Wind Speed Wind Dir Waves Ship Positions

Union Trader

Last reported at 2015-Feb-10 13:08 UTC. Time now 2015-Mar-05 02:39 UTC.
Position N 38°53' E 122°12'.
Warning: this ship's position is 22 days out of date.

Length 190 m; draft 4.7 m.

Type: Cargo ship. MMSI: 240982000.

Date/timePositionNaut miles runAvg speedWind from/ knotsBaromVisibWave heightAir tempDewpointWater temp
2015-Feb-10 13:08N 38°53' E 122°12'0 0.0
2015-Feb-10 12:26N 38°53' E 122°12'0 0.0
2015-Feb-10 11:33N 38°53' E 122°12'0 0.0
2015-Feb-10 10:27N 38°53' E 122°12'0 0.0
2015-Feb-10 09:33N 38°53' E 122°12'1 0.0
2015-Feb-08 10:19N 38°53' E 122°12'27 2.1
2015-Feb-07 21:19N 38°27' E 122°20'4 3.3
2015-Feb-07 20:11N 38°30' E 122°18'2 3.4
2015-Feb-07 19:34N 38°32' E 122°17'17 4.2
2015-Feb-07 15:33N 38°47' E 122°07'1 0.9
2015-Feb-07 14:31N 38°48' E 122°06'0 0.3
2015-Feb-07 13:31N 38°48' E 122°06'0 0.0
2015-Feb-07 12:31N 38°48' E 122°06'0 0.0
2015-Feb-07 11:31N 38°48' E 122°06'0 0.0
2015-Feb-07 10:31N 38°48' E 122°06'0 0.0
2015-Feb-07 09:31N 38°48' E 122°06'0 0.0
2015-Feb-07 08:31N 38°48' E 122°06'1 0.7
2015-Feb-07 07:33N 38°48' E 122°05'4 4.0
2015-Feb-07 06:33N 38°48' E 122°00'1111.2
2015-Feb-07 05:33N 38°50' E 121°46'8 7.6
2015-Feb-07 04:33N 38°57' E 121°43'4 3.4
2015-Feb-07 03:29N 39°01' E 121°41'  
2015-Feb-02 05:33N 39°01' E 121°41'0 0.0
2015-Feb-02 04:33N 39°01' E 121°41'  
Track history (hours):
 
Tides and Currents Weather Stations Pressure Air Temp Water Temp Dewpoint Dewpoint Depression Visibility Wind Speed Wind Dir Waves Ship Positions

Union Trader

Last reported at 2015-Feb-10 13:08 UTC. Time now 2015-Mar-05 02:39 UTC.
Position N 38°53' E 122°12'.
Warning: this ship's position is 22 days out of date.

Length 190 m; draft 4.7 m.

Type: Cargo ship. MMSI: 240982000.

Date/timePositionNaut miles runAvg speedWind from/ knotsBaromVisibWave heightAir tempDewpointWater temp
2015-Feb-10 13:08N 38°53' E 122°12'0 0.0
2015-Feb-10 12:26N 38°53' E 122°12'0 0.0
2015-Feb-10 11:33N 38°53' E 122°12'0 0.0
2015-Feb-10 10:27N 38°53' E 122°12'0 0.0
2015-Feb-10 09:33N 38°53' E 122°12'1 0.0
2015-Feb-08 10:19N 38°53' E 122°12'27 2.1
2015-Feb-07 21:19N 38°27' E 122°20'4 3.3
2015-Feb-07 20:11N 38°30' E 122°18'2 3.4
2015-Feb-07 19:34N 38°32' E 122°17'17 4.2
2015-Feb-07 15:33N 38°47' E 122°07'1 0.9
2015-Feb-07 14:31N 38°48' E 122°06'0 0.3
2015-Feb-07 13:31N 38°48' E 122°06'0 0.0
2015-Feb-07 12:31N 38°48' E 122°06'0 0.0
2015-Feb-07 11:31N 38°48' E 122°06'0 0.0
2015-Feb-07 10:31N 38°48' E 122°06'0 0.0
2015-Feb-07 09:31N 38°48' E 122°06'0 0.0
2015-Feb-07 08:31N 38°48' E 122°06'1 0.7
2015-Feb-07 07:33N 38°48' E 122°05'4 4.0
2015-Feb-07 06:33N 38°48' E 122°00'1111.2
2015-Feb-07 05:33N 38°50' E 121°46'8 7.6
2015-Feb-07 04:33N 38°57' E 121°43'4 3.4
2015-Feb-07 03:29N 39°01' E 121°41'  
2015-Feb-02 05:33N 39°01' E 121°41'0 0.0
2015-Feb-02 04:33N 39°01' E 121°41'  

Dump ship's entire track history